createdAt,value
2019-04-04T00:01:49.995Z,5.40
2019-04-04T00:04:21.789Z,5.40
2019-04-04T00:06:48.992Z,5.30
2019-04-04T00:09:17.745Z,5.30
2019-04-04T00:11:46.415Z,5.30
2019-04-04T00:14:15.173Z,5.20
2019-04-04T00:16:43.833Z,5.20
2019-04-04T00:19:12.581Z,5.20
2019-04-04T00:21:41.320Z,5.20
2019-04-04T00:24:10.065Z,5.20
2019-04-04T00:26:41.658Z,5.20
2019-04-04T00:29:09.063Z,5.10
2019-04-04T00:31:37.831Z,5.10
2019-04-04T00:34:06.553Z,5.10
2019-04-04T00:36:35.304Z,5.00
2019-04-04T00:39:05.588Z,5.00
2019-04-04T00:41:34.264Z,5.00
2019-04-04T00:44:03.029Z,4.90
2019-04-04T00:46:31.697Z,4.90
2019-04-04T00:49:00.382Z,4.90
2019-04-04T00:51:29.058Z,4.80
2019-04-04T00:53:57.725Z,4.80
2019-04-04T00:56:26.398Z,4.70
2019-04-04T00:58:55.065Z,4.80
2019-04-04T01:01:25.969Z,4.70
2019-04-04T01:03:54.197Z,4.70
2019-04-04T01:06:22.964Z,4.70
2019-04-04T01:08:51.714Z,4.60
2019-04-04T01:11:20.984Z,4.60
2019-04-04T01:13:49.654Z,4.60
2019-04-04T01:16:18.321Z,4.60
2019-04-04T01:18:47.001Z,4.50
2019-04-04T01:21:15.663Z,4.50
2019-04-04T01:23:44.347Z,4.50
2019-04-04T01:26:13.089Z,4.40
2019-04-04T01:28:41.787Z,4.40
2019-04-04T01:31:10.505Z,4.40
2019-04-04T01:33:39.182Z,4.30
2019-04-04T01:36:07.858Z,4.30
2019-04-04T01:38:36.542Z,4.30
2019-04-04T01:41:05.270Z,4.20
2019-04-04T01:43:33.947Z,4.20
2019-04-04T01:46:02.622Z,4.20
2019-04-04T01:48:31.300Z,4.20
2019-04-04T01:50:59.969Z,4.20
2019-04-04T01:53:30.180Z,4.10
2019-04-04T01:55:58.964Z,4.10
2019-04-04T01:58:27.637Z,4.10
2019-04-04T02:00:56.390Z,4.10
2019-04-04T02:03:25.197Z,4.10
2019-04-04T02:05:53.952Z,4.00
2019-04-04T02:08:22.629Z,4.00
2019-04-04T02:10:51.378Z,4.00
2019-04-04T02:13:20.050Z,4.00
2019-04-04T02:15:48.729Z,4.00
2019-04-04T02:18:17.469Z,3.90
2019-04-04T02:20:46.149Z,3.90
2019-04-04T02:23:14.826Z,3.90
2019-04-04T02:25:43.498Z,3.90
2019-04-04T02:28:12.177Z,3.80
2019-04-04T02:30:40.929Z,3.80
2019-04-04T02:33:09.598Z,3.80
2019-04-04T02:35:38.283Z,3.80
2019-04-04T02:38:08.596Z,3.80
2019-04-04T02:40:40.998Z,3.80
2019-04-04T02:43:07.667Z,3.80
2019-04-04T02:45:38.713Z,3.70
2019-04-04T02:48:06.791Z,3.80
2019-04-04T02:50:35.917Z,3.70
2019-04-04T02:53:04.687Z,3.70
2019-04-04T02:55:33.367Z,3.70
2019-04-04T02:58:02.040Z,3.70
2019-04-04T03:00:30.717Z,3.70
2019-04-04T03:02:59.456Z,3.60
2019-04-04T03:05:28.120Z,3.60
2019-04-04T03:07:56.870Z,3.60
2019-04-04T03:10:25.716Z,3.60
2019-04-04T03:12:58.003Z,3.60
2019-04-04T03:15:25.041Z,3.50
2019-04-04T03:17:53.728Z,3.50
2019-04-04T03:20:22.408Z,3.50
2019-04-04T03:22:51.081Z,3.50
2019-04-04T03:25:19.761Z,3.50
2019-04-04T03:27:48.439Z,3.40
2019-04-04T03:30:17.620Z,3.40
2019-04-04T03:32:51.695Z,3.40
2019-04-04T03:35:16.861Z,3.40
2019-04-04T03:37:46.256Z,3.40
2019-04-04T03:40:15.181Z,3.40
2019-04-04T03:42:44.845Z,3.40
2019-04-04T03:45:13.560Z,3.40
2019-04-04T03:47:44.512Z,3.30
2019-04-04T03:50:12.586Z,3.30
2019-04-04T03:52:44.259Z,3.30
2019-04-04T03:55:11.650Z,3.30
2019-04-04T03:57:40.328Z,3.30
2019-04-04T04:00:09.541Z,3.30
2019-04-04T04:02:38.218Z,3.30
2019-04-04T04:05:18.545Z,3.30
2019-04-04T04:07:48.107Z,3.40
2019-04-04T04:10:17.622Z,3.30
2019-04-04T04:12:46.285Z,3.30
2019-04-04T04:15:14.969Z,3.30
2019-04-04T04:17:45.430Z,3.40
2019-04-04T04:20:14.031Z,3.40
2019-04-04T04:22:42.704Z,3.40
2019-04-04T04:25:11.553Z,3.40
2019-04-04T04:27:40.233Z,3.50
2019-04-04T04:30:09.442Z,3.50
2019-04-04T04:32:38.128Z,3.50
2019-04-04T04:35:08.587Z,3.60
2019-04-04T04:37:37.266Z,3.60
2019-04-04T04:40:06.403Z,3.60
2019-04-04T04:42:35.102Z,3.70
2019-04-04T04:45:05.149Z,3.70
2019-04-04T04:47:33.822Z,3.70
2019-04-04T04:50:02.502Z,3.70
2019-04-04T04:52:31.241Z,3.80
2019-04-04T04:54:59.856Z,3.80
2019-04-04T04:57:30.221Z,3.90
2019-04-04T04:59:58.937Z,4.00
2019-04-04T05:02:27.566Z,4.00
2019-04-04T05:04:57.267Z,4.10
2019-04-04T05:07:26.531Z,4.20
2019-04-04T05:09:55.203Z,4.30
2019-04-04T05:12:23.884Z,4.30
2019-04-04T05:14:52.554Z,4.50
2019-04-04T05:17:21.232Z,5.10
2019-04-04T05:19:50.174Z,5.70
2019-04-04T05:22:19.430Z,6.20
2019-04-04T05:25:06.941Z,6.50
2019-04-04T05:27:18.423Z,7.00
2019-04-04T05:29:47.135Z,7.40
2019-04-04T05:32:15.765Z,7.60
2019-04-04T05:34:44.457Z,7.70
2019-04-04T05:37:13.145Z,7.90
2019-04-04T05:39:41.827Z,8.30
2019-04-04T05:42:10.572Z,8.40
2019-04-04T05:44:41.287Z,8.50
2019-04-04T05:47:09.627Z,9.10
2019-04-04T05:49:38.863Z,9.20
2019-04-04T05:52:08.984Z,9.40
2019-04-04T05:54:39.099Z,9.30
2019-04-04T05:57:08.318Z,9.30
2019-04-04T05:59:37.001Z,9.40
2019-04-04T06:02:05.679Z,9.40
2019-04-04T06:04:34.350Z,9.10
2019-04-04T06:07:04.342Z,9.10
2019-04-04T06:09:33.418Z,9.20
2019-04-04T06:12:02.111Z,9.50
2019-04-04T06:14:30.807Z,9.80
2019-04-04T06:16:59.465Z,9.80
2019-04-04T06:19:28.140Z,9.80
2019-04-04T06:21:56.821Z,10.00
2019-04-04T06:24:27.293Z,10.00
2019-04-04T06:26:55.901Z,10.00
2019-04-04T06:29:24.556Z,10.30
2019-04-04T06:31:53.252Z,10.40
2019-04-04T06:34:24.069Z,10.70
2019-04-04T06:36:52.257Z,10.90
2019-04-04T06:39:20.940Z,11.10
2019-04-04T06:41:49.615Z,11.50
2019-04-04T06:44:18.321Z,11.40
2019-04-04T06:46:47.037Z,11.40
2019-04-04T06:49:15.659Z,11.40
2019-04-04T06:51:46.430Z,11.70
2019-04-04T06:54:14.668Z,11.90
2019-04-04T06:56:43.346Z,11.80
2019-04-04T06:59:12.443Z,11.90
2019-04-04T07:01:41.205Z,12.00
2019-04-04T07:04:09.881Z,11.90
2019-04-04T07:06:41.739Z,12.00
2019-04-04T07:09:08.994Z,12.20
2019-04-04T07:11:37.636Z,12.10
2019-04-04T07:14:06.378Z,12.10
2019-04-04T07:16:36.899Z,11.80
2019-04-04T07:19:07.901Z,11.80
2019-04-04T07:21:35.790Z,11.60
2019-04-04T07:24:04.527Z,11.50
2019-04-04T07:26:33.207Z,11.40
2019-04-04T07:29:01.891Z,11.20
2019-04-04T07:31:33.273Z,11.10
2019-04-04T07:34:00.885Z,11.00
2019-04-04T07:36:29.533Z,10.90
2019-04-04T07:38:58.183Z,10.90
2019-04-04T07:41:28.491Z,10.90
2019-04-04T07:43:58.602Z,10.90
2019-04-04T07:46:27.363Z,10.90
2019-04-04T07:48:56.049Z,11.00
2019-04-04T07:51:24.724Z,11.00
2019-04-04T07:53:53.402Z,11.00
2019-04-04T07:56:22.078Z,11.00
2019-04-04T07:58:50.808Z,11.10
2019-04-04T08:01:19.449Z,11.20
2019-04-04T08:03:48.095Z,11.30
2019-04-04T08:06:16.787Z,11.20
2019-04-04T08:08:45.457Z,11.30
2019-04-04T08:11:14.146Z,11.30
2019-04-04T08:13:42.817Z,11.30
2019-04-04T08:16:11.566Z,11.30
2019-04-04T08:18:40.318Z,11.20
2019-04-04T08:21:09.068Z,11.20
2019-04-04T08:23:37.737Z,11.20
2019-04-04T08:26:06.421Z,11.30
2019-04-04T08:28:35.097Z,11.30
2019-04-04T08:31:03.841Z,11.40
2019-04-04T08:33:32.441Z,11.40
2019-04-04T08:36:06.397Z,11.50
2019-04-04T08:38:31.445Z,11.50
2019-04-04T08:41:00.185Z,11.50
2019-04-04T08:43:28.865Z,11.50
2019-04-04T08:45:57.560Z,11.60
2019-04-04T08:48:26.303Z,11.70
2019-04-04T08:50:54.964Z,11.70
2019-04-04T08:53:23.578Z,11.80
2019-04-04T08:55:52.265Z,11.90
2019-04-04T08:58:20.951Z,11.90
2019-04-04T09:00:49.584Z,11.80
2019-04-04T09:03:18.236Z,11.80
2019-04-04T09:05:46.909Z,11.80
2019-04-04T09:08:15.576Z,11.70
2019-04-04T09:10:44.249Z,11.70
2019-04-04T09:13:12.940Z,11.70
2019-04-04T09:15:41.698Z,11.80
2019-04-04T09:18:10.370Z,11.90
2019-04-04T09:20:39.120Z,11.80
2019-04-04T09:23:08.268Z,11.90
2019-04-04T09:25:37.013Z,11.90
2019-04-04T09:28:05.955Z,12.00
2019-04-04T09:30:34.706Z,12.00
2019-04-04T09:33:03.445Z,12.10
2019-04-04T09:35:32.231Z,12.10
2019-04-04T09:38:00.969Z,12.20
2019-04-04T09:40:29.645Z,12.30
2019-04-04T09:42:58.334Z,12.30
2019-04-04T09:45:27.089Z,12.30
2019-04-04T09:47:55.766Z,12.30
2019-04-04T09:50:24.445Z,12.30
2019-04-04T09:52:53.129Z,12.30
2019-04-04T09:55:21.893Z,12.30
2019-04-04T09:57:50.564Z,12.40
2019-04-04T10:00:21.180Z,12.40
2019-04-04T10:02:50.006Z,12.50
2019-04-04T10:05:18.857Z,12.50
2019-04-04T10:07:47.517Z,12.50
2019-04-04T10:10:18.035Z,12.50
2019-04-04T10:12:46.705Z,12.40
2019-04-04T10:15:16.553Z,12.40
2019-04-04T10:17:45.423Z,12.40
2019-04-04T10:20:14.272Z,12.40
2019-04-04T10:22:42.957Z,12.50
2019-04-04T10:25:11.715Z,12.50
2019-04-04T10:27:40.454Z,12.50
2019-04-04T10:30:09.517Z,12.60
2019-04-04T10:32:38.252Z,12.50
2019-04-04T10:35:07.321Z,12.60
2019-04-04T10:37:35.994Z,12.60
2019-04-04T10:40:07.299Z,12.70
2019-04-04T10:42:36.157Z,12.80
2019-04-04T10:45:07.867Z,12.70
2019-04-04T10:47:36.616Z,12.80
2019-04-04T10:50:09.645Z,12.80
2019-04-04T10:52:38.390Z,12.80
2019-04-04T10:55:07.327Z,12.70
2019-04-04T10:57:36.054Z,12.70
2019-04-04T11:00:07.466Z,12.60
2019-04-04T11:02:36.233Z,12.60
2019-04-04T11:05:05.880Z,12.60
2019-04-04T11:07:35.027Z,12.50
2019-04-04T11:10:04.868Z,12.60
2019-04-04T11:12:34.446Z,12.60
2019-04-04T11:15:03.861Z,12.60
2019-04-04T11:17:32.567Z,12.60
2019-04-04T11:20:01.223Z,12.70
2019-04-04T11:22:29.889Z,12.70
2019-04-04T11:24:58.640Z,12.80
2019-04-04T11:27:27.314Z,12.60
2019-04-04T11:29:55.984Z,12.70
2019-04-04T11:32:24.728Z,12.70
2019-04-04T11:34:53.798Z,12.70
2019-04-04T11:37:22.585Z,12.80
2019-04-04T11:39:54.863Z,12.80
2019-04-04T11:42:21.581Z,12.80
2019-04-04T11:44:50.258Z,12.90
2019-04-04T11:47:18.940Z,12.90
2019-04-04T11:49:47.612Z,12.80
2019-04-04T11:52:16.296Z,12.70
2019-04-04T11:54:58.183Z,12.80
2019-04-04T11:57:26.870Z,12.70
2019-04-04T11:59:55.612Z,12.80
2019-04-04T12:02:24.955Z,12.80
2019-04-04T12:04:53.634Z,12.80
2019-04-04T12:07:22.304Z,12.80
2019-04-04T12:09:50.981Z,12.90
2019-04-04T12:12:19.725Z,12.90
2019-04-04T12:14:48.475Z,12.80
2019-04-04T12:17:17.148Z,12.80
2019-04-04T12:19:45.857Z,12.90
2019-04-04T12:22:14.797Z,13.00
2019-04-04T12:24:43.478Z,13.00
2019-04-04T12:27:12.156Z,13.00
2019-04-04T12:29:40.832Z,13.00
2019-04-04T12:32:09.512Z,13.10
2019-04-04T12:34:38.249Z,13.20
2019-04-04T12:37:06.933Z,13.20
2019-04-04T12:39:35.608Z,13.20
2019-04-04T12:42:04.359Z,13.20
2019-04-04T12:44:33.035Z,13.20
2019-04-04T12:47:01.772Z,13.20
2019-04-04T12:49:30.448Z,13.10
2019-04-04T12:51:59.122Z,13.20
2019-04-04T12:54:27.801Z,13.10
2019-04-04T12:56:56.472Z,13.10
2019-04-04T12:59:25.213Z,13.20
2019-04-04T13:01:53.873Z,13.10
2019-04-04T13:04:30.919Z,13.10
2019-04-04T13:06:52.901Z,13.10
2019-04-04T13:09:21.534Z,13.30
2019-04-04T13:11:50.183Z,13.20
2019-04-04T13:14:18.867Z,13.20
2019-04-04T13:16:47.608Z,13.20
2019-04-04T13:19:16.418Z,13.30
2019-04-04T13:21:45.029Z,13.20
2019-04-04T13:24:13.717Z,13.20
2019-04-04T13:26:42.386Z,13.20
2019-04-04T13:29:11.068Z,13.20
2019-04-04T13:31:39.808Z,13.20
2019-04-04T13:34:08.485Z,13.20
2019-04-04T13:36:37.443Z,13.20
2019-04-04T13:39:09.517Z,13.30
2019-04-04T13:41:38.573Z,13.30
2019-04-04T13:44:07.241Z,13.30
2019-04-04T13:46:35.996Z,13.20
2019-04-04T13:49:04.666Z,13.20
2019-04-04T13:51:33.346Z,13.20
2019-04-04T13:54:02.093Z,13.20
2019-04-04T13:56:30.845Z,13.20
2019-04-04T13:59:02.488Z,13.20
2019-04-04T14:01:29.843Z,13.10
2019-04-04T14:03:58.474Z,13.20
2019-04-04T14:06:27.120Z,13.10
2019-04-04T14:08:55.873Z,13.10
2019-04-04T14:11:24.561Z,13.10
2019-04-04T14:13:53.311Z,13.10
2019-04-04T14:16:22.050Z,13.10
2019-04-04T14:18:50.725Z,13.00
2019-04-04T14:21:19.474Z,12.90
2019-04-04T14:23:51.949Z,13.00
2019-04-04T14:26:18.478Z,13.00
2019-04-04T14:28:47.162Z,12.90
2019-04-04T14:31:15.912Z,12.90
2019-04-04T14:33:44.590Z,12.90
2019-04-04T14:36:13.333Z,12.90
2019-04-04T14:38:42.010Z,12.90
2019-04-04T14:41:11.847Z,13.00
2019-04-04T14:43:40.651Z,12.90
2019-04-04T14:46:09.328Z,12.90
2019-04-04T14:48:38.076Z,12.80
2019-04-04T14:51:06.832Z,12.80
2019-04-04T14:53:35.491Z,12.80
2019-04-04T14:56:04.191Z,12.80
2019-04-04T14:58:32.929Z,12.80
2019-04-04T15:01:01.687Z,12.80
2019-04-04T15:03:30.362Z,12.80
2019-04-04T15:05:59.119Z,12.70
2019-04-04T15:08:27.792Z,12.80
2019-04-04T15:10:56.493Z,12.70
2019-04-04T15:13:25.181Z,12.70
2019-04-04T15:16:14.672Z,12.70
2019-04-04T15:18:43.708Z,12.70
2019-04-04T15:21:12.558Z,12.60
2019-04-04T15:23:41.315Z,12.60
2019-04-04T15:26:10.126Z,12.60
2019-04-04T15:28:38.876Z,12.50
2019-04-04T15:31:07.519Z,12.50
2019-04-04T15:33:36.161Z,12.50
2019-04-04T15:36:04.974Z,12.40
2019-04-04T15:38:33.690Z,12.40
2019-04-04T15:41:02.337Z,12.40
2019-04-04T15:43:31.078Z,12.30
2019-04-04T15:45:59.784Z,12.40
2019-04-04T15:48:28.453Z,12.40
2019-04-04T15:50:57.130Z,12.30
2019-04-04T15:53:25.802Z,12.30
2019-04-04T15:55:54.481Z,12.30
2019-04-04T15:58:23.096Z,12.30
2019-04-04T16:00:51.846Z,12.20
2019-04-04T16:03:20.597Z,12.20
2019-04-04T16:05:49.279Z,12.20
2019-04-04T16:08:17.962Z,12.10
2019-04-04T16:10:46.705Z,12.10
2019-04-04T16:13:15.454Z,12.10
2019-04-04T16:15:44.134Z,12.00
2019-04-04T16:18:12.881Z,12.00
2019-04-04T16:20:41.624Z,12.00
2019-04-04T16:23:10.385Z,12.00
2019-04-04T16:25:39.138Z,12.00
2019-04-04T16:28:07.884Z,11.90
2019-04-04T16:30:36.520Z,11.90
2019-04-04T16:33:05.174Z,11.90
2019-04-04T16:35:33.859Z,11.70
2019-04-04T16:38:02.547Z,11.60
2019-04-04T16:40:31.313Z,11.50
2019-04-04T16:42:59.989Z,11.40
2019-04-04T16:45:28.676Z,11.40
2019-04-04T16:47:57.355Z,11.40
2019-04-04T16:50:26.100Z,11.40
2019-04-04T16:52:54.785Z,11.40
2019-04-04T16:55:23.529Z,11.30
2019-04-04T16:57:52.213Z,11.30
2019-04-04T17:00:21.178Z,11.20
2019-04-04T17:02:49.839Z,11.10
2019-04-04T17:05:18.589Z,11.00
2019-04-04T17:07:47.341Z,10.90
2019-04-04T17:10:18.062Z,10.80
2019-04-04T17:12:46.887Z,10.70
2019-04-04T17:15:15.731Z,10.60
2019-04-04T17:17:44.478Z,10.60
2019-04-04T17:20:13.493Z,10.60
2019-04-04T17:22:42.249Z,10.60
2019-04-04T17:25:11.202Z,10.50
2019-04-04T17:27:39.945Z,10.40
2019-04-04T17:30:10.527Z,10.50
2019-04-04T17:32:39.918Z,10.50
2019-04-04T17:35:08.845Z,10.40
2019-04-04T17:37:37.714Z,10.30
2019-04-04T17:40:09.921Z,10.30
2019-04-04T17:42:38.673Z,10.20
2019-04-04T17:45:09.281Z,10.20
2019-04-04T17:47:38.596Z,10.20
2019-04-04T17:50:10.836Z,10.10
2019-04-04T17:52:40.031Z,10.10
2019-04-04T17:55:09.175Z,10.00
2019-04-04T17:57:38.431Z,10.00
2019-04-04T18:00:08.315Z,10.00
2019-04-04T18:02:37.077Z,9.90
2019-04-04T18:05:10.005Z,9.90
2019-04-04T18:07:38.761Z,9.90
2019-04-04T18:10:08.415Z,9.90
2019-04-04T18:12:40.648Z,9.80
2019-04-04T18:15:08.183Z,9.80
2019-04-04T18:17:36.929Z,9.80
2019-04-04T18:20:09.647Z,9.70
2019-04-04T18:22:38.421Z,9.60
2019-04-04T18:25:07.588Z,9.60
2019-04-04T18:27:36.239Z,9.60
2019-04-04T18:30:10.108Z,9.60
2019-04-04T18:32:38.812Z,9.50
2019-04-04T18:35:08.635Z,9.50
2019-04-04T18:37:37.469Z,9.40
2019-04-04T18:40:08.022Z,9.40
2019-04-04T18:42:36.769Z,9.40
2019-04-04T18:45:07.226Z,9.40
2019-04-04T18:47:35.970Z,9.40
2019-04-04T18:50:06.574Z,9.30
